createdAt,value
2024-05-09T00:01:11.789Z,9.90
2024-05-09T00:04:18.557Z,6.70
2024-05-09T00:07:20.713Z,7.90
2024-05-09T00:10:50.656Z,7.10
2024-05-09T00:13:52.659Z,8.70
2024-05-09T00:17:17.941Z,5.60
2024-05-09T00:20:35.294Z,6.60
2024-05-09T00:23:43.186Z,7.00
2024-05-09T00:27:25.359Z,8.60
2024-05-09T00:30:47.349Z,11.50
2024-05-09T00:33:59.712Z,9.80
2024-05-09T00:37:01.749Z,6.80
2024-05-09T00:40:34.697Z,8.70
2024-05-09T00:43:41.020Z,7.90
2024-05-09T00:46:45.428Z,4.70
2024-05-09T00:49:48.538Z,9.30
2024-05-09T00:53:31.091Z,8.60
2024-05-09T00:56:41.510Z,6.80
2024-05-09T00:59:43.880Z,10.20
2024-05-09T01:03:06.213Z,10.50
2024-05-09T01:06:08.497Z,6.70
2024-05-09T01:09:15.926Z,7.50
2024-05-09T01:12:20.670Z,7.50
2024-05-09T01:15:28.590Z,8.40
2024-05-09T01:19:05.029Z,7.30
2024-05-09T01:22:09.808Z,10.00
2024-05-09T01:25:24.066Z,7.60
2024-05-09T01:28:34.915Z,10.30
2024-05-09T01:31:59.832Z,9.90
2024-05-09T01:35:28.652Z,9.60
2024-05-09T01:39:31.000Z,9.80
2024-05-09T01:42:53.011Z,8.90
2024-05-09T01:46:37.388Z,7.60
2024-05-09T01:49:40.636Z,8.20
2024-05-09T01:53:15.767Z,9.80
2024-05-09T01:56:17.582Z,8.80
2024-05-09T01:59:40.195Z,8.60
2024-05-09T02:02:45.768Z,9.60
2024-05-09T02:05:50.425Z,9.20
2024-05-09T02:08:52.239Z,6.90
2024-05-09T02:11:54.265Z,10.60
2024-05-09T02:15:19.678Z,7.90
2024-05-09T02:18:24.381Z,8.40
2024-05-09T02:21:26.259Z,8.80
2024-05-09T02:24:51.095Z,7.60
2024-05-09T02:27:55.600Z,10.40
2024-05-09T02:31:00.831Z,9.20
2024-05-09T02:34:08.085Z,6.70
2024-05-09T02:37:12.970Z,10.70
2024-05-09T02:40:25.219Z,7.70
2024-05-09T02:43:30.896Z,8.90
2024-05-09T02:46:35.224Z,7.60
2024-05-09T02:50:05.960Z,10.70
2024-05-09T02:53:09.503Z,12.20
2024-05-09T02:56:12.086Z,20.10
2024-05-09T02:59:13.978Z,28.30
2024-05-09T03:02:18.118Z,21.80
2024-05-09T03:05:22.299Z,25.50
2024-05-09T03:08:24.316Z,28.70
2024-05-09T03:11:26.664Z,28.70
2024-05-09T03:14:31.183Z,26.20
2024-05-09T03:17:33.121Z,31.00
2024-05-09T03:20:36.348Z,21.60
2024-05-09T03:23:42.391Z,22.90
2024-05-09T03:26:44.826Z,20.50
2024-05-09T03:29:49.937Z,14.40
2024-05-09T03:32:51.999Z,13.00
2024-05-09T03:35:54.016Z,14.60
2024-05-09T03:38:58.420Z,9.30
2024-05-09T03:42:00.427Z,9.80
2024-05-09T03:45:02.096Z,9.20
2024-05-09T03:48:04.374Z,9.60
2024-05-09T03:51:39.701Z,10.80
2024-05-09T03:54:47.466Z,9.40
2024-05-09T03:57:49.145Z,8.90
2024-05-09T04:01:11.726Z,7.70
2024-05-09T04:04:13.683Z,8.50
2024-05-09T04:07:15.758Z,10.10
2024-05-09T04:10:27.383Z,6.60
2024-05-09T04:13:33.072Z,7.90
2024-05-09T04:16:34.888Z,11.40
2024-05-09T04:19:59.512Z,8.30
2024-05-09T04:23:04.389Z,9.00
2024-05-09T04:26:08.779Z,11.70
2024-05-09T04:29:16.469Z,10.10
2024-05-09T04:32:43.710Z,8.30
2024-05-09T04:36:03.715Z,8.80
2024-05-09T04:39:36.031Z,7.40
2024-05-09T04:42:40.839Z,7.90
2024-05-09T04:45:45.611Z,11.40
2024-05-09T04:48:48.717Z,8.10
2024-05-09T04:51:58.138Z,7.80
2024-05-09T04:55:03.096Z,8.10
2024-05-09T04:58:07.095Z,8.00
2024-05-09T05:01:11.712Z,7.80
2024-05-09T05:04:13.383Z,11.70
2024-05-09T05:07:15.152Z,10.00
2024-05-09T05:10:25.094Z,8.50
2024-05-09T05:13:32.397Z,9.90
2024-05-09T05:16:34.227Z,12.30
2024-05-09T05:19:39.135Z,9.00
2024-05-09T05:22:43.074Z,12.10
2024-05-09T05:25:47.874Z,12.20
2024-05-09T05:29:10.164Z,12.10
2024-05-09T05:32:12.720Z,7.20
2024-05-09T05:35:35.184Z,11.10
2024-05-09T05:38:59.481Z,7.40
2024-05-09T05:42:01.308Z,8.80
2024-05-09T05:45:26.017Z,11.00
2024-05-09T05:48:33.281Z,11.20
2024-05-09T05:51:38.550Z,9.90
2024-05-09T05:54:40.549Z,9.00
2024-05-09T05:57:43.597Z,13.80
2024-05-09T06:00:45.589Z,7.50
2024-05-09T06:03:47.475Z,9.50
2024-05-09T06:06:49.445Z,13.00
2024-05-09T06:09:51.303Z,10.70
2024-05-09T06:12:53.229Z,11.60
2024-05-09T06:15:55.029Z,15.50
2024-05-09T06:18:59.908Z,10.30
2024-05-09T06:22:02.963Z,10.20
2024-05-09T06:25:08.209Z,10.50
2024-05-09T06:28:12.691Z,14.80
2024-05-09T06:31:14.656Z,9.90
2024-05-09T06:34:18.801Z,11.10
2024-05-09T06:37:51.403Z,6.90
2024-05-09T06:41:05.818Z,14.40
2024-05-09T06:44:20.024Z,8.70
2024-05-09T06:47:21.923Z,10.20
2024-05-09T06:50:35.244Z,9.80
2024-05-09T06:53:40.608Z,9.50
2024-05-09T06:56:44.847Z,9.50
2024-05-09T06:59:59.648Z,8.40
2024-05-09T07:03:19.667Z,13.70
2024-05-09T07:06:21.880Z,10.20
2024-05-09T07:09:35.864Z,9.30
2024-05-09T07:12:37.596Z,10.40
2024-05-09T07:15:40.858Z,9.40
2024-05-09T07:18:42.990Z,9.10
2024-05-09T07:21:47.741Z,10.10
2024-05-09T07:24:49.500Z,9.80
2024-05-09T07:27:53.921Z,14.80
2024-05-09T07:30:55.649Z,9.00
2024-05-09T07:33:58.782Z,9.20
2024-05-09T07:37:01.923Z,10.00
2024-05-09T07:40:07.430Z,11.40
2024-05-09T07:43:14.101Z,8.00
2024-05-09T07:47:14.207Z,7.40
2024-05-09T07:51:32.568Z,8.50
2024-05-09T07:53:36.653Z,7.90
2024-05-09T07:56:30.545Z,10.30
2024-05-09T07:59:53.052Z,8.00
2024-05-09T08:02:55.071Z,8.60
2024-05-09T08:06:01.672Z,7.90
2024-05-09T08:09:08.056Z,9.20
2024-05-09T08:12:19.371Z,9.50
2024-05-09T08:15:21.074Z,8.10
2024-05-09T08:18:25.546Z,7.90
2024-05-09T08:21:29.594Z,8.20
2024-05-09T08:24:31.635Z,6.90
2024-05-09T08:27:33.520Z,6.60
2024-05-09T08:30:37.419Z,8.70
2024-05-09T08:33:51.395Z,6.50
2024-05-09T08:36:54.094Z,8.00
2024-05-09T08:39:56.135Z,4.90
2024-05-09T08:43:01.498Z,6.40
2024-05-09T08:46:06.138Z,6.80
2024-05-09T08:49:08.426Z,7.50
2024-05-09T08:52:10.444Z,6.30
2024-05-09T08:55:12.916Z,4.10
2024-05-09T08:58:19.701Z,6.10
2024-05-09T09:01:22.859Z,7.00
2024-05-09T09:04:25.217Z,7.70
2024-05-09T09:07:30.040Z,4.80
2024-05-09T09:10:35.221Z,7.10
2024-05-09T09:13:42.476Z,5.00
2024-05-09T09:16:45.957Z,4.50
2024-05-09T09:19:48.078Z,4.50
2024-05-09T09:22:50.033Z,5.70
2024-05-09T09:26:03.546Z,5.70
2024-05-09T09:29:05.259Z,6.40
2024-05-09T09:32:11.181Z,3.80
2024-05-09T09:35:12.978Z,6.20
2024-05-09T09:38:39.887Z,6.90
2024-05-09T09:41:46.775Z,3.90
2024-05-09T09:44:58.215Z,6.00
2024-05-09T09:48:08.039Z,7.60
2024-05-09T09:51:10.667Z,5.30
2024-05-09T09:54:13.618Z,5.70
2024-05-09T09:57:18.196Z,5.20
2024-05-09T10:00:27.158Z,6.10
2024-05-09T10:03:34.520Z,4.00
2024-05-09T10:06:42.274Z,5.10
2024-05-09T10:10:06.876Z,3.60
2024-05-09T10:13:09.025Z,7.50
2024-05-09T10:16:11.591Z,3.50
2024-05-09T10:19:46.496Z,4.60
2024-05-09T10:22:52.013Z,9.80
2024-05-09T10:25:58.462Z,6.20
2024-05-09T10:32:05.516Z,4.80
2024-05-09T10:35:08.962Z,3.80
2024-05-09T10:38:12.569Z,6.30
2024-05-09T10:41:16.739Z,4.00
2024-05-09T10:44:18.679Z,6.40
2024-05-09T10:47:21.245Z,7.40
2024-05-09T10:50:28.580Z,5.30
2024-05-09T10:53:56.646Z,6.50
2024-05-09T10:56:58.513Z,10.00
2024-05-09T11:00:00.176Z,5.90
2024-05-09T11:03:02.032Z,6.20
2024-05-09T11:06:04.268Z,5.70
2024-05-09T11:09:06.862Z,5.40
2024-05-09T11:12:28.917Z,5.30
2024-05-09T11:15:43.005Z,4.80
2024-05-09T11:18:54.606Z,6.10
2024-05-09T11:21:58.268Z,5.50
2024-05-09T11:25:04.462Z,4.30
2024-05-09T11:28:07.760Z,6.30
2024-05-09T11:31:10.483Z,5.40
2024-05-09T11:34:12.765Z,7.50
2024-05-09T11:37:14.812Z,4.20
2024-05-09T11:40:24.345Z,6.50
2024-05-09T11:43:27.751Z,5.50
2024-05-09T11:46:29.685Z,4.30
2024-05-09T11:49:31.585Z,5.70
2024-05-09T11:52:33.446Z,5.10
2024-05-09T11:55:38.118Z,4.80
2024-05-09T11:58:41.404Z,4.20
2024-05-09T12:01:43.320Z,4.30
2024-05-09T12:04:46.819Z,5.00
2024-05-09T12:07:48.804Z,6.60
2024-05-09T12:10:50.692Z,6.20
2024-05-09T12:13:54.859Z,7.80
2024-05-09T12:17:01.016Z,5.00
2024-05-09T12:23:12.175Z,9.60
2024-05-09T12:26:15.645Z,6.20
2024-05-09T12:29:18.021Z,7.20
2024-05-09T12:32:20.004Z,4.90
2024-05-09T12:35:21.774Z,4.00
2024-05-09T12:38:23.767Z,5.70
2024-05-09T12:41:25.871Z,3.80
2024-05-09T12:44:27.463Z,6.60
2024-05-09T12:47:29.729Z,4.20
2024-05-09T12:50:33.602Z,5.80
2024-05-09T12:53:36.521Z,4.40
2024-05-09T12:56:38.196Z,5.00
2024-05-09T12:59:42.272Z,4.20
2024-05-09T13:02:44.001Z,3.90
2024-05-09T13:05:46.384Z,2.90
2024-05-09T13:08:48.245Z,7.60
2024-05-09T13:11:50.053Z,5.30
2024-05-09T13:15:01.088Z,4.20
2024-05-09T13:18:06.725Z,4.00
2024-05-09T13:21:08.661Z,3.10
2024-05-09T13:24:10.413Z,4.20
2024-05-09T13:27:14.954Z,3.10
2024-05-09T13:30:28.816Z,5.70
2024-05-09T13:33:55.539Z,5.60
2024-05-09T13:36:57.467Z,4.20
2024-05-09T13:40:00.604Z,6.50
2024-05-09T13:43:05.396Z,5.00
2024-05-09T13:46:07.576Z,3.30
2024-05-09T13:49:12.384Z,3.00
2024-05-09T13:52:14.648Z,4.90
2024-05-09T13:55:16.467Z,5.70
2024-05-09T13:58:23.207Z,6.40
2024-05-09T14:01:28.657Z,4.00
2024-05-09T14:04:30.622Z,4.60
2024-05-09T14:07:32.635Z,4.20
2024-05-09T14:10:35.476Z,4.20
2024-05-09T14:13:39.572Z,8.50
2024-05-09T14:16:44.661Z,6.00
2024-05-09T14:20:13.999Z,6.90
2024-05-09T14:23:19.852Z,6.70
2024-05-09T14:26:21.680Z,3.50
2024-05-09T14:29:23.633Z,5.30
2024-05-09T14:32:25.525Z,3.00
2024-05-09T14:35:30.102Z,4.10
2024-05-09T14:38:32.002Z,7.60
2024-05-09T14:41:33.789Z,4.00
2024-05-09T14:44:35.476Z,2.90
2024-05-09T14:47:37.380Z,5.10
2024-05-09T14:50:40.750Z,7.00
2024-05-09T14:53:43.127Z,6.80
2024-05-09T14:56:44.902Z,8.10
2024-05-09T14:59:46.510Z,5.00
2024-05-09T15:02:51.041Z,3.00
2024-05-09T15:05:53.327Z,7.50
2024-05-09T15:08:57.352Z,4.80
2024-05-09T15:12:01.768Z,8.30
2024-05-09T15:15:04.018Z,2.60
2024-05-09T15:18:06.413Z,3.20
2024-05-09T15:21:08.545Z,4.90
2024-05-09T15:24:10.302Z,4.30
2024-05-09T15:27:12.519Z,5.30
2024-05-09T15:33:17.440Z,5.20
2024-05-09T15:36:20.341Z,5.30
2024-05-09T15:39:30.409Z,4.20
2024-05-09T15:42:32.426Z,5.70
